CUP weather

General Francisco Bermúdez Airport
Carúpano, Sucre, Venezuela

Public forecast

Using degrees Celsius for public forecast. Weather courtesy of forecast.io.

METAR (pilot weather report)

Report is more than 6 hours old.

Retrieved 2017/11/23 16:00 UTC (1 year ago):

SVCP 231600Z NI

TAF (pilot weather forecast)

Closest forecast is Del Caribe Santiago Mariño International Airport, 44.3 nm (82.0 km) WNW. Retrieved 2019/05/20 12:00 UTC (2 hours ago):

TAF SVMG 201000Z 2012/2112 26010KT 9999 FEW016 TX31/17Z TN25/07Z BECMG 2012/2016 27009KT FEW016